Time;durP1;ratioP1;P1;durP2;ratioP2;P2;SDS_P1;SDS_P2;PMS_P1;PMS_P2;Temp;Humidity;BMP_temperature;BMP_pressure;BME280_temperature;BME280_humidity;BME280_pressure;Samples;Min_cycle;Max_cycle;Signal;HPM_P1;HPM_P2
2024/02/07 00:01:32;;;;;;;14.17;3.03;;;;;;;;;;5000038;28;20265;-69
2024/02/07 00:04:03;;;;;;;3.43;1.97;;;;;;;;;;5001013;28;20261;-69
2024/02/07 00:06:28;;;;;;;13.07;3.10;;;;;;;;;;4995863;28;20313;-68
2024/02/07 00:08:53;;;;;;;20.23;4.32;;;;;;;;;;4996911;28;20041;-69
2024/02/07 00:11:18;;;;;;;9.43;3.33;;;;;;;;;;4995074;28;20025;-69
2024/02/07 00:13:45;;;;;;;19.92;3.83;;;;;;;;;;5002567;28;20142;-68
2024/02/07 00:16:10;;;;;;;11.32;2.95;;;;;;;;;;4997107;28;20110;-69
2024/02/07 00:18:35;;;;;;;10.38;3.47;;;;;;;;;;5001920;28;20040;-69
2024/02/07 00:21:00;;;;;;;7.00;2.93;;;;;;;;;;5006795;28;20026;-69
2024/02/07 00:23:25;;;;;;;7.00;3.13;;;;;;;;;;5006064;28;20759;-68
2024/02/07 00:25:51;;;;;;;10.07;2.83;;;;;;;;;;4999602;28;20297;-69
2024/02/07 00:28:16;;;;;;;6.53;2.30;;;;;;;;;;5000031;28;20261;-69
2024/02/07 00:30:41;;;;;;;9.03;2.53;;;;;;;;;;5006125;28;20257;-69
2024/02/07 00:33:06;;;;;;;9.75;2.17;;;;;;;;;;4995283;28;20252;-69
2024/02/07 00:35:31;;;;;;;5.17;2.53;;;;;;;;;;4991067;28;20038;-68
2024/02/07 00:37:57;;;;;;;6.55;2.40;;;;;;;;;;5005163;28;20264;-69
2024/02/07 00:40:22;;;;;;;6.25;2.20;;;;;;;;;;5003425;28;20048;-69
2024/02/07 00:42:49;;;;;;;13.60;2.53;;;;;;;;;;5002215;28;20038;-69
2024/02/07 00:45:14;;;;;;;7.55;2.78;;;;;;;;;;5000052;28;20281;-69
2024/02/07 00:47:40;;;;;;;9.77;2.50;;;;;;;;;;5002196;28;20033;-69
2024/02/07 00:50:05;;;;;;;11.90;3.20;;;;;;;;;;5006759;28;20025;-69
2024/02/07 00:52:30;;;;;;;9.40;2.25;;;;;;;;;;5000463;28;20509;-68
2024/02/07 00:54:55;;;;;;;11.80;3.43;;;;;;;;;;5002072;28;20035;-69
2024/02/07 00:57:21;;;;;;;5.57;2.47;;;;;;;;;;5003344;28;20723;-69
2024/02/07 00:59:46;;;;;;;6.50;2.20;;;;;;;;;;4992868;28;20347;-69
2024/02/07 01:02:11;;;;;;;15.40;2.35;;;;;;;;;;5004734;28;20249;-69
2024/02/07 01:04:36;;;;;;;7.05;2.55;;;;;;;;;;4997494;28;20034;-69
2024/02/07 01:07:01;;;;;;;6.00;2.30;;;;;;;;;;4986959;28;20031;-69
2024/02/07 01:09:29;;;;;;;2.87;1.23;;;;;;;;;;4994419;28;20316;-68
2024/02/07 01:11:54;;;;;;;5.53;1.88;;;;;;;;;;4990592;28;20336;-69
2024/02/07 01:14:19;;;;;;;7.50;2.83;;;;;;;;;;5004762;28;20460;-69
2024/02/07 01:16:44;;;;;;;8.47;3.20;;;;;;;;;;4996865;28;20022;-69
2024/02/07 01:19:10;;;;;;;9.32;2.92;;;;;;;;;;4996525;28;20769;-69
2024/02/07 01:21:35;;;;;;;10.02;3.60;;;;;;;;;;4992511;28;20018;-69
2024/02/07 01:24:00;;;;;;;8.90;2.10;;;;;;;;;;4998991;28;20034;-69
2024/02/07 01:26:25;;;;;;;7.60;2.77;;;;;;;;;;4993353;28;20285;-69
2024/02/07 01:28:51;;;;;;;6.38;2.55;;;;;;;;;;4998490;28;20027;-69
2024/02/07 01:31:16;;;;;;;12.00;2.42;;;;;;;;;;5001013;28;20019;-69
2024/02/07 01:33:42;;;;;;;7.20;1.85;;;;;;;;;;4997612;28;20022;-69
2024/02/07 01:36:07;;;;;;;7.40;2.75;;;;;;;;;;4989510;28;20023;-68
2024/02/07 01:38:33;;;;;;;9.55;2.75;;;;;;;;;;4994920;28;20026;-69
2024/02/07 01:40:58;;;;;;;4.50;2.78;;;;;;;;;;4994341;28;20057;-69
2024/02/07 01:43:33;;;;;;;10.53;4.13;;;;;;;;;;4999234;28;20029;-69
2024/02/07 01:45:59;;;;;;;4.70;1.98;;;;;;;;;;4984225;28;20285;-69
2024/02/07 01:48:24;;;;;;;5.82;2.45;;;;;;;;;;5001635;28;20025;-69
2024/02/07 01:50:50;;;;;;;6.70;2.23;;;;;;;;;;4998385;28;20022;-69
2024/02/07 01:53:15;;;;;;;4.22;2.33;;;;;;;;;;4997942;28;20270;-69
2024/02/07 01:55:44;;;;;;;11.10;2.30;;;;;;;;;;4992921;28;20049;-68
2024/02/07 01:58:09;;;;;;;7.55;2.92;;;;;;;;;;4992702;28;20058;-69
2024/02/07 02:00:35;;;;;;;6.03;2.53;;;;;;;;;;5001286;28;20103;-69
2024/02/07 02:03:01;;;;;;;8.88;2.17;;;;;;;;;;4996012;28;20026;-69
2024/02/07 02:05:26;;;;;;;9.27;3.03;;;;;;;;;;4998840;28;20508;-69
2024/02/07 02:07:53;;;;;;;9.90;3.53;;;;;;;;;;4996735;28;20501;-69
2024/02/07 02:10:18;;;;;;;7.30;2.47;;;;;;;;;;4983509;28;20277;-69
2024/02/07 02:12:44;;;;;;;8.88;3.85;;;;;;;;;;5003292;28;20076;-69
2024/02/07 02:15:09;;;;;;;10.45;3.17;;;;;;;;;;4995792;28;20671;-68
2024/02/07 02:17:35;;;;;;;10.20;3.50;;;;;;;;;;5000040;28;20010;-69
2024/02/07 02:20:00;;;;;;;8.98;3.03;;;;;;;;;;4997173;28;20025;-68
2024/02/07 02:22:31;;;;;;;12.10;3.72;;;;;;;;;;4993845;28;20088;-68
2024/02/07 02:25:15;;;;;;;5.35;2.83;;;;;;;;;;4992695;28;20126;-70
2024/02/07 02:27:49;;;;;;;10.77;2.90;;;;;;;;;;4993534;28;20523;-69
2024/02/07 02:30:20;;;;;;;13.48;4.30;;;;;;;;;;4990337;28;20154;-69
2024/02/07 02:32:46;;;;;;;8.68;3.25;;;;;;;;;;4991427;28;20652;-69
2024/02/07 02:35:12;;;;;;;5.93;2.38;;;;;;;;;;4994750;28;20046;-68
2024/02/07 02:37:38;;;;;;;9.18;2.70;;;;;;;;;;5000903;28;20030;-69
2024/02/07 02:40:05;;;;;;;6.05;2.22;;;;;;;;;;4993210;28;20105;-69
2024/02/07 02:42:31;;;;;;;3.60;1.92;;;;;;;;;;4995556;28;20086;-68
2024/02/07 02:44:56;;;;;;;6.82;3.10;;;;;;;;;;5002355;28;20057;-69
2024/02/07 02:47:21;;;;;;;14.40;3.90;;;;;;;;;;4999863;28;20022;-69
2024/02/07 02:49:47;;;;;;;15.73;4.60;;;;;;;;;;4991045;28;20409;-69
2024/02/07 02:52:13;;;;;;;8.27;2.60;;;;;;;;;;4995758;28;20328;-68
2024/02/07 02:54:39;;;;;;;8.05;2.70;;;;;;;;;;5000601;28;20253;-68
2024/02/07 02:57:07;;;;;;;15.13;2.90;;;;;;;;;;4989153;28;20181;-69
2024/02/07 02:59:35;;;;;;;4.75;2.45;;;;;;;;;;4988048;28;20023;-69
2024/02/07 03:02:08;;;;;;;6.05;2.42;;;;;;;;;;4997208;28;20036;-69
2024/02/07 03:04:35;;;;;;;4.80;2.05;;;;;;;;;;4999145;28;20034;-69
2024/02/07 03:07:13;;;;;;;10.27;2.55;;;;;;;;;;4997228;28;20022;-68
2024/02/07 03:09:39;;;;;;;8.18;3.17;;;;;;;;;;4999091;28;20426;-69
2024/02/07 03:12:04;;;;;;;15.68;3.22;;;;;;;;;;5002623;28;20097;-69
2024/02/07 03:14:30;;;;;;;12.75;3.50;;;;;;;;;;5002370;28;20106;-69
2024/02/07 03:16:55;;;;;;;7.13;2.05;;;;;;;;;;5005745;28;20026;-69
2024/02/07 03:19:20;;;;;;;14.73;2.25;;;;;;;;;;4999972;28;20026;-69
2024/02/07 03:21:46;;;;;;;4.90;2.10;;;;;;;;;;4995499;28;20026;-69
2024/02/07 03:24:11;;;;;;;5.07;2.80;;;;;;;;;;5007284;28;20902;-69
2024/02/07 03:26:37;;;;;;;7.63;2.70;;;;;;;;;;5002594;28;20034;-69
2024/02/07 03:29:02;;;;;;;4.13;1.80;;;;;;;;;;4997650;28;20770;-69
2024/02/07 03:31:27;;;;;;;12.70;2.90;;;;;;;;;;5007218;28;20022;-69
2024/02/07 03:33:53;;;;;;;5.80;1.97;;;;;;;;;;5004652;28;20277;-69
2024/02/07 03:36:21;;;;;;;10.00;2.65;;;;;;;;;;4996695;28;20968;-69
2024/02/07 03:38:46;;;;;;;10.48;2.50;;;;;;;;;;5002593;28;20022;-69
2024/02/07 03:41:11;;;;;;;3.27;1.77;;;;;;;;;;5001402;28;20049;-69
2024/02/07 03:43:38;;;;;;;11.35;2.55;;;;;;;;;;5000615;28;20274;-69
2024/02/07 03:46:05;;;;;;;8.38;2.97;;;;;;;;;;4989885;28;20032;-69
2024/02/07 03:48:31;;;;;;;7.30;2.45;;;;;;;;;;5003786;28;20013;-69
2024/02/07 03:50:56;;;;;;;4.47;2.17;;;;;;;;;;5005013;28;20500;-69
2024/02/07 03:53:21;;;;;;;9.90;2.57;;;;;;;;;;4990000;28;20037;-69
2024/02/07 03:55:48;;;;;;;9.23;2.50;;;;;;;;;;4996609;28;20350;-69
2024/02/07 03:58:13;;;;;;;5.13;1.73;;;;;;;;;;5004862;28;20026;-69
2024/02/07 04:00:38;;;;;;;5.93;2.30;;;;;;;;;;5001370;28;20014;-69
2024/02/07 04:03:03;;;;;;;5.22;2.00;;;;;;;;;;5001585;28;20312;-69
2024/02/07 04:05:29;;;;;;;8.73;3.05;;;;;;;;;;4993982;28;20034;-69
2024/02/07 04:07:54;;;;;;;7.30;2.10;;;;;;;;;;5004360;28;20116;-69
2024/02/07 04:10:19;;;;;;;4.60;2.03;;;;;;;;;;4998058;28;20105;-69
2024/02/07 05:15:32;;;;;;;7.35;2.30;;;;;;;;;;4986059;28;20033;-69
2024/02/07 05:17:57;;;;;;;5.85;1.75;;;;;;;;;;4990440;28;20030;-69
2024/02/07 05:20:22;;;;;;;5.78;1.42;;;;;;;;;;4989981;28;20018;-68
2024/02/07 05:22:49;;;;;;;6.05;1.20;;;;;;;;;;4996911;28;20045;-68
2024/02/07 05:25:15;;;;;;;2.65;1.20;;;;;;;;;;4992416;28;20018;-69
2024/02/07 05:27:40;;;;;;;1.83;0.83;;;;;;;;;;5000903;28;20040;-68
2024/02/07 05:30:05;;;;;;;3.67;1.40;;;;;;;;;;4999462;28;20362;-68
2024/02/07 05:32:31;;;;;;;3.13;1.33;;;;;;;;;;5000642;28;20249;-68
2024/02/07 05:34:56;;;;;;;5.53;1.43;;;;;;;;;;5000008;28;20042;-68
2024/02/07 05:37:22;;;;;;;3.47;1.15;;;;;;;;;;5003489;28;20268;-68
2024/02/07 05:39:48;;;;;;;7.53;1.58;;;;;;;;;;4991142;28;20029;-68
2024/02/07 05:42:13;;;;;;;3.23;1.20;;;;;;;;;;4990193;28;20026;-68
2024/02/07 05:44:38;;;;;;;3.50;1.63;;;;;;;;;;4989712;28;20327;-68
2024/02/07 05:47:03;;;;;;;5.00;1.50;;;;;;;;;;5002177;28;20305;-68
2024/02/07 05:49:29;;;;;;;3.92;1.70;;;;;;;;;;5001887;28;20268;-68
2024/02/07 05:52:00;;;;;;;4.55;1.50;;;;;;;;;;5002121;28;20011;-68
2024/02/07 05:54:25;;;;;;;6.32;1.50;;;;;;;;;;4997549;28;20020;-68
2024/02/07 05:56:51;;;;;;;5.55;1.17;;;;;;;;;;5001014;28;20033;-68
2024/02/07 05:59:17;;;;;;;4.38;1.20;;;;;;;;;;5000916;28;20535;-68
2024/02/07 06:01:44;;;;;;;4.45;1.10;;;;;;;;;;4998010;28;20497;-68
2024/02/07 06:04:09;;;;;;;5.28;1.10;;;;;;;;;;5001601;28;20101;-68
2024/02/07 06:06:34;;;;;;;2.10;0.82;;;;;;;;;;5000157;28;20113;-69
2024/02/07 06:09:00;;;;;;;3.08;0.57;;;;;;;;;;5002318;28;20023;-69
2024/02/07 06:11:31;;;;;;;2.15;0.63;;;;;;;;;;5002251;28;20018;-69
2024/02/07 06:13:56;;;;;;;4.78;1.00;;;;;;;;;;4994937;28;20030;-69
2024/02/07 06:16:22;;;;;;;10.32;1.10;;;;;;;;;;5000262;28;20637;-68
2024/02/07 06:18:48;;;;;;;3.05;0.80;;;;;;;;;;4993288;28;20516;-69
2024/02/07 06:21:13;;;;;;;2.22;1.17;;;;;;;;;;4995612;28;20037;-69
2024/02/07 06:23:38;;;;;;;2.97;1.30;;;;;;;;;;4993123;28;20034;-68
2024/02/07 06:26:03;;;;;;;4.40;1.23;;;;;;;;;;4992571;28;20362;-69
2024/02/07 06:28:28;;;;;;;3.35;0.98;;;;;;;;;;4994399;28;20277;-69
2024/02/07 06:30:53;;;;;;;3.10;1.13;;;;;;;;;;4998833;28;20058;-69
2024/02/07 06:33:19;;;;;;;2.47;1.07;;;;;;;;;;4995704;28;20268;-68
2024/02/07 06:35:44;;;;;;;3.83;1.33;;;;;;;;;;4996684;28;20344;-69
2024/02/07 06:38:09;;;;;;;6.50;1.33;;;;;;;;;;4999114;28;20029;-68
2024/02/07 06:40:34;;;;;;;2.40;1.20;;;;;;;;;;4993698;28;20349;-68
2024/02/07 06:42:59;;;;;;;4.32;1.13;;;;;;;;;;4987417;28;20281;-69
2024/02/07 06:45:24;;;;;;;3.13;0.77;;;;;;;;;;4986573;28;20448;-69
2024/02/07 06:47:50;;;;;;;1.85;0.95;;;;;;;;;;4988403;28;20745;-69
2024/02/07 06:50:15;;;;;;;9.57;3.37;;;;;;;;;;4997209;28;20026;-68
2024/02/07 06:52:41;;;;;;;34.78;12.48;;;;;;;;;;4994916;28;20266;-68
2024/02/07 06:55:06;;;;;;;54.78;17.73;;;;;;;;;;4997984;28;20033;-68
2024/02/07 06:57:31;;;;;;;5.57;3.22;;;;;;;;;;4989369;28;20653;-68
2024/02/07 06:59:57;;;;;;;4.32;1.98;;;;;;;;;;5001003;28;20433;-68
2024/02/07 07:02:22;;;;;;;3.42;1.63;;;;;;;;;;4990024;28;20031;-69
2024/02/07 07:04:48;;;;;;;2.83;1.52;;;;;;;;;;4999841;28;20067;-68
2024/02/07 07:07:13;;;;;;;3.17;1.90;;;;;;;;;;5003064;28;20115;-68
2024/02/07 07:09:38;;;;;;;1.53;0.97;;;;;;;;;;4998523;28;20026;-68
2024/02/07 07:12:03;;;;;;;1.03;0.83;;;;;;;;;;5000955;28;20689;-69
2024/02/07 07:14:29;;;;;;;5.50;1.92;;;;;;;;;;5003101;28;20372;-68
2024/02/07 07:16:54;;;;;;;2.37;1.23;;;;;;;;;;4997164;28;20112;-68
2024/02/07 07:19:19;;;;;;;1.73;0.97;;;;;;;;;;5004460;28;20267;-69
2024/02/07 07:21:44;;;;;;;6.17;1.73;;;;;;;;;;4992515;28;20359;-68
2024/02/07 07:24:09;;;;;;;2.50;1.25;;;;;;;;;;4991582;28;20277;-68
2024/02/07 07:26:35;;;;;;;2.78;1.63;;;;;;;;;;4991472;28;20030;-68
2024/02/07 07:29:00;;;;;;;4.38;1.80;;;;;;;;;;4985511;28;20059;-68
2024/02/07 07:31:25;;;;;;;3.13;1.75;;;;;;;;;;4996318;28;20037;-69
2024/02/07 07:33:51;;;;;;;3.53;1.75;;;;;;;;;;5002188;28;20041;-69
2024/02/07 07:36:16;;;;;;;3.65;1.77;;;;;;;;;;4994945;28;20433;-69
2024/02/07 07:38:42;;;;;;;3.58;2.10;;;;;;;;;;4997413;28;20030;-69
2024/02/07 07:41:07;;;;;;;6.68;1.92;;;;;;;;;;5000813;28;20033;-69
2024/02/07 07:43:32;;;;;;;6.25;2.30;;;;;;;;;;4994232;28;20499;-69
2024/02/07 07:45:57;;;;;;;8.27;2.50;;;;;;;;;;4997314;28;20080;-69
2024/02/07 07:48:22;;;;;;;5.27;2.20;;;;;;;;;;5002233;28;20740;-69
2024/02/07 07:50:47;;;;;;;5.63;2.80;;;;;;;;;;5001134;28;20300;-69
2024/02/07 07:53:13;;;;;;;7.77;3.53;;;;;;;;;;4996605;28;20338;-69
2024/02/07 07:55:38;;;;;;;7.83;3.03;;;;;;;;;;4998957;28;20261;-69
2024/02/07 07:58:03;;;;;;;9.47;3.00;;;;;;;;;;4999983;28;20277;-69
2024/02/07 08:00:28;;;;;;;8.15;3.25;;;;;;;;;;4999788;28;20288;-69
2024/02/07 08:02:53;;;;;;;7.30;3.17;;;;;;;;;;5001867;28;20477;-69
2024/02/07 08:05:19;;;;;;;9.40;3.37;;;;;;;;;;4999854;28;20256;-69
2024/02/07 08:07:44;;;;;;;9.02;3.20;;;;;;;;;;4995084;28;20776;-69
2024/02/07 08:10:09;;;;;;;5.33;3.07;;;;;;;;;;4999126;28;20022;-69
2024/02/07 08:12:35;;;;;;;8.32;2.67;;;;;;;;;;4996863;28;20261;-69
2024/02/07 08:15:00;;;;;;;7.95;3.13;;;;;;;;;;4999900;28;20370;-69
2024/02/07 08:17:25;;;;;;;7.53;2.80;;;;;;;;;;4995401;28;20544;-69
2024/02/07 08:19:50;;;;;;;5.57;2.60;;;;;;;;;;5000406;28;20042;-69
2024/02/07 08:22:15;;;;;;;6.90;2.67;;;;;;;;;;5002436;28;20261;-69
2024/02/07 08:24:40;;;;;;;7.77;2.73;;;;;;;;;;4997126;28;20307;-69
2024/02/07 08:27:06;;;;;;;7.53;2.73;;;;;;;;;;4999115;28;20320;-69
2024/02/07 08:29:31;;;;;;;7.20;2.87;;;;;;;;;;5002099;28;20671;-69
2024/02/07 08:31:56;;;;;;;15.27;3.13;;;;;;;;;;4996314;28;20285;-69
2024/02/07 08:34:22;;;;;;;8.18;3.45;;;;;;;;;;4997693;28;20018;-69
2024/02/07 08:36:47;;;;;;;12.80;3.75;;;;;;;;;;4995645;28;20435;-69
2024/02/07 08:39:12;;;;;;;9.57;3.40;;;;;;;;;;4996700;28;20038;-69
2024/02/07 08:41:40;;;;;;;10.38;3.47;;;;;;;;;;4992598;28;20319;-69
2024/02/07 08:44:06;;;;;;;9.15;4.43;;;;;;;;;;5001145;28;20478;-69
2024/02/07 08:46:31;;;;;;;8.85;3.70;;;;;;;;;;4998598;28;20052;-69
2024/02/07 08:48:56;;;;;;;8.93;3.53;;;;;;;;;;5000959;28;20105;-69
2024/02/07 08:51:21;;;;;;;15.00;3.87;;;;;;;;;;5000936;28;20269;-69
2024/02/07 08:53:47;;;;;;;13.40;4.10;;;;;;;;;;4999043;28;20312;-69
2024/02/07 08:56:12;;;;;;;10.68;3.70;;;;;;;;;;4996976;28;20351;-69
2024/02/07 08:58:38;;;;;;;8.37;3.33;;;;;;;;;;4997221;28;20030;-69
2024/02/07 09:01:04;;;;;;;8.55;2.42;;;;;;;;;;4996420;28;20273;-69
2024/02/07 09:03:29;;;;;;;4.88;2.08;;;;;;;;;;5000932;28;20022;-69
2024/02/07 09:05:54;;;;;;;4.10;1.23;;;;;;;;;;4998557;28;20117;-69
2024/02/07 09:08:19;;;;;;;8.03;1.00;;;;;;;;;;5001717;28;20025;-69
2024/02/07 09:10:45;;;;;;;9.13;1.40;;;;;;;;;;4996689;28;20261;-69
2024/02/07 09:13:10;;;;;;;5.33;0.73;;;;;;;;;;5000136;28;20042;-69
2024/02/07 09:15:35;;;;;;;2.37;0.70;;;;;;;;;;4991348;28;20265;-69
2024/02/07 09:18:00;;;;;;;7.07;1.27;;;;;;;;;;4995984;28;20304;-69
2024/02/07 09:20:25;;;;;;;4.10;0.97;;;;;;;;;;5005087;28;20289;-69
2024/02/07 09:22:50;;;;;;;9.18;1.00;;;;;;;;;;4996957;28;20810;-69
2024/02/07 09:25:16;;;;;;;9.93;1.08;;;;;;;;;;5001586;28;20018;-69
2024/02/07 09:27:41;;;;;;;4.55;1.00;;;;;;;;;;4998907;28;20022;-69
2024/02/07 09:30:07;;;;;;;5.22;1.10;;;;;;;;;;4997344;28;20030;-69
2024/02/07 09:32:32;;;;;;;4.18;0.90;;;;;;;;;;4995338;28;20073;-69
2024/02/07 09:34:57;;;;;;;4.93;0.93;;;;;;;;;;4996100;28;20018;-69
2024/02/07 09:37:22;;;;;;;5.70;1.02;;;;;;;;;;4987915;28;20026;-70
2024/02/07 09:39:47;;;;;;;7.30;1.10;;;;;;;;;;4990288;28;20038;-69
2024/02/07 09:42:16;;;;;;;4.53;1.03;;;;;;;;;;4990013;28;20288;-69
2024/02/07 09:44:45;;;;;;;10.15;1.00;;;;;;;;;;4995266;28;20265;-69
2024/02/07 09:47:13;;;;;;;6.72;1.13;;;;;;;;;;4992355;28;20077;-69
2024/02/07 09:49:38;;;;;;;4.95;1.83;;;;;;;;;;4996262;28;20124;-69
2024/02/07 09:52:05;;;;;;;11.88;1.10;;;;;;;;;;4994887;28;20070;-69
2024/02/07 09:54:30;;;;;;;10.23;1.33;;;;;;;;;;4997930;28;20018;-69
2024/02/07 09:56:56;;;;;;;6.95;1.02;;;;;;;;;;4995092;28;20033;-69
2024/02/07 09:59:21;;;;;;;4.38;1.27;;;;;;;;;;4995739;28;20058;-69
2024/02/07 10:01:47;;;;;;;5.57;1.50;;;;;;;;;;4995051;28;20096;-69
2024/02/07 10:04:32;;;;;;;4.55;1.10;;;;;;;;;;4993530;28;20469;-69
2024/02/07 10:06:57;;;;;;;10.05;1.75;;;;;;;;;;4992853;28;20038;-69
2024/02/07 10:09:23;;;;;;;7.57;1.52;;;;;;;;;;5000226;28;20028;-69
2024/02/07 10:11:48;;;;;;;8.48;1.20;;;;;;;;;;4987806;28;20113;-69
2024/02/07 10:14:14;;;;;;;6.80;1.60;;;;;;;;;;4998183;28;20093;-69
2024/02/07 10:16:39;;;;;;;8.23;1.48;;;;;;;;;;4997240;28;20097;-69
2024/02/07 10:19:04;;;;;;;12.15;2.10;;;;;;;;;;4999780;28;20033;-69
2024/02/07 10:21:36;;;;;;;6.10;1.63;;;;;;;;;;4998794;28;20053;-69
2024/02/07 10:24:04;;;;;;;12.15;1.65;;;;;;;;;;4999341;28;20036;-69
2024/02/07 10:26:30;;;;;;;9.18;2.28;;;;;;;;;;4992702;28;20430;-69
2024/02/07 10:29:02;;;;;;;7.70;2.03;;;;;;;;;;4995160;28;20085;-69
2024/02/07 10:31:27;;;;;;;8.68;1.98;;;;;;;;;;4996115;28;20025;-69
2024/02/07 10:33:54;;;;;;;17.85;2.92;;;;;;;;;;4997827;28;20018;-69
2024/02/07 10:36:21;;;;;;;8.23;2.53;;;;;;;;;;5000537;28;20044;-69
2024/02/07 10:38:46;;;;;;;7.82;1.95;;;;;;;;;;4993904;28;20482;-69
2024/02/07 10:41:12;;;;;;;6.32;1.85;;;;;;;;;;4994048;28;20033;-69
2024/02/07 10:43:37;;;;;;;11.45;2.55;;;;;;;;;;4995023;28;20049;-69
2024/02/07 10:46:12;;;;;;;13.90;2.58;;;;;;;;;;4995656;28;20432;-69
2024/02/07 10:48:38;;;;;;;8.25;2.28;;;;;;;;;;4991450;28;20021;-69
2024/02/07 10:51:04;;;;;;;7.45;2.03;;;;;;;;;;4994067;28;20030;-69
2024/02/07 10:53:29;;;;;;;10.18;1.65;;;;;;;;;;4998821;28;20533;-69
2024/02/07 10:55:59;;;;;;;8.68;2.05;;;;;;;;;;4988127;28;20366;-69
2024/02/07 10:58:25;;;;;;;11.02;1.63;;;;;;;;;;4997913;28;20077;-69
2024/02/07 11:00:54;;;;;;;8.88;2.00;;;;;;;;;;4994031;28;20066;-69
2024/02/07 11:03:23;;;;;;;5.55;1.88;;;;;;;;;;5000246;28;20505;-69
2024/02/07 11:05:48;;;;;;;5.95;1.52;;;;;;;;;;4992721;28;20031;-69
2024/02/07 11:08:14;;;;;;;8.70;1.45;;;;;;;;;;4998201;28;20021;-69
2024/02/07 11:10:39;;;;;;;11.57;1.90;;;;;;;;;;4997022;28;20022;-69
2024/02/07 11:13:05;;;;;;;6.05;1.65;;;;;;;;;;4997501;28;20469;-69
2024/02/07 11:15:30;;;;;;;5.93;1.52;;;;;;;;;;4996044;28;20022;-69
2024/02/07 11:17:55;;;;;;;5.47;1.17;;;;;;;;;;4994044;28;20140;-69
2024/02/07 11:20:20;;;;;;;9.02;1.83;;;;;;;;;;4997305;28;20263;-69
2024/02/07 11:22:48;;;;;;;3.20;1.23;;;;;;;;;;4985615;28;20409;-69
2024/02/07 11:25:16;;;;;;;6.18;0.90;;;;;;;;;;4985943;28;20023;-69
2024/02/07 11:27:42;;;;;;;4.63;1.00;;;;;;;;;;4989826;28;20033;-69
2024/02/07 11:30:08;;;;;;;7.28;1.30;;;;;;;;;;4986468;28;20558;-69
2024/02/07 11:32:33;;;;;;;4.38;1.27;;;;;;;;;;4999507;28;20037;-69
2024/02/07 11:35:01;;;;;;;2.15;0.95;;;;;;;;;;5000558;28;20022;-69
2024/02/07 11:37:32;;;;;;;6.55;1.23;;;;;;;;;;4997996;28;20037;-69
2024/02/07 11:40:03;;;;;;;8.68;0.73;;;;;;;;;;4993447;28;20038;-69
2024/02/07 11:42:34;;;;;;;4.90;1.05;;;;;;;;;;5002063;28;20021;-69
2024/02/07 11:45:00;;;;;;;9.13;1.10;;;;;;;;;;4997444;28;20042;-69
2024/02/07 11:47:35;;;;;;;8.50;1.20;;;;;;;;;;5000214;28;20107;-69
2024/02/07 11:50:02;;;;;;;6.05;0.82;;;;;;;;;;5000787;28;20018;-69
2024/02/07 11:52:28;;;;;;;3.80;1.00;;;;;;;;;;4999943;28;20033;-69
2024/02/07 11:54:53;;;;;;;7.03;1.27;;;;;;;;;;4993699;28;20399;-69
2024/02/07 11:57:21;;;;;;;10.82;1.13;;;;;;;;;;4999168;28;20019;-69
2024/02/07 11:59:46;;;;;;;5.65;1.52;;;;;;;;;;4996313;28;20069;-69
2024/02/07 12:02:11;;;;;;;2.55;0.95;;;;;;;;;;4999771;28;20069;-69
2024/02/07 12:04:40;;;;;;;7.95;1.02;;;;;;;;;;4997598;28;20029;-69
2024/02/07 12:07:05;;;;;;;8.88;1.40;;;;;;;;;;4996691;28;20059;-69
2024/02/07 12:09:32;;;;;;;7.28;1.65;;;;;;;;;;4999542;28;20049;-69
2024/02/07 12:11:58;;;;;;;6.25;1.35;;;;;;;;;;4999962;28;20051;-69
2024/02/07 12:14:23;;;;;;;5.65;1.38;;;;;;;;;;4998315;28;20037;-69
2024/02/07 12:16:50;;;;;;;6.23;1.03;;;;;;;;;;4995862;28;20110;-69
2024/02/07 12:19:15;;;;;;;5.05;1.10;;;;;;;;;;5000090;28;20260;-69
2024/02/07 12:21:41;;;;;;;2.30;0.88;;;;;;;;;;4994786;28;20579;-69
2024/02/07 12:24:07;;;;;;;7.50;1.33;;;;;;;;;;4994382;28;20555;-69
2024/02/07 12:26:33;;;;;;;3.40;0.93;;;;;;;;;;4995765;28;20045;-69
2024/02/07 12:28:59;;;;;;;3.20;1.15;;;;;;;;;;4997079;28;20026;-69
2024/02/07 12:31:25;;;;;;;5.32;1.00;;;;;;;;;;4998342;28;20029;-69
2024/02/07 12:33:50;;;;;;;7.65;1.33;;;;;;;;;;4996152;28;20022;-69
2024/02/07 12:36:15;;;;;;;2.60;0.90;;;;;;;;;;4995475;28;20034;-69
2024/02/07 12:38:40;;;;;;;3.65;1.17;;;;;;;;;;4996539;28;20026;-69
2024/02/07 12:41:06;;;;;;;11.15;1.50;;;;;;;;;;4999824;28;20494;-69
2024/02/07 12:43:31;;;;;;;5.88;1.38;;;;;;;;;;4995857;28;20030;-69
2024/02/07 12:45:58;;;;;;;1.45;0.82;;;;;;;;;;4993877;28;20070;-69
2024/02/07 12:48:26;;;;;;;2.58;0.98;;;;;;;;;;4998196;28;20022;-70
2024/02/07 12:50:55;;;;;;;3.03;0.85;;;;;;;;;;4993366;28;20038;-69
2024/02/07 12:53:20;;;;;;;0.45;0.38;;;;;;;;;;4997159;28;20030;-69
2024/02/07 12:55:46;;;;;;;0.88;0.70;;;;;;;;;;4990969;28;20038;-69
2024/02/07 12:58:12;;;;;;;2.75;0.35;;;;;;;;;;5000021;28;20058;-69
2024/02/07 13:00:37;;;;;;;0.77;0.63;;;;;;;;;;4991251;28;20112;-69
2024/02/07 13:03:02;;;;;;;10.80;1.40;;;;;;;;;;4991192;28;20026;-69
2024/02/07 13:05:28;;;;;;;6.80;0.88;;;;;;;;;;4995041;28;20082;-69
2024/02/07 13:07:53;;;;;;;6.67;0.93;;;;;;;;;;4997925;28;20186;-69
2024/02/07 13:10:18;;;;;;;2.45;0.90;;;;;;;;;;4992024;28;20269;-70
2024/02/07 13:12:43;;;;;;;10.82;3.45;;;;;;;;;;4993731;28;20026;-69
2024/02/07 13:15:14;;;;;;;3.88;1.10;;;;;;;;;;4999120;28;20015;-69
2024/02/07 13:17:39;;;;;;;2.15;0.65;;;;;;;;;;4993216;28;20054;-70
2024/02/07 13:20:05;;;;;;;7.75;2.13;;;;;;;;;;4998991;28;20069;-69
2024/02/07 13:22:31;;;;;;;6.72;1.60;;;;;;;;;;4999152;28;20025;-69
2024/02/07 13:24:56;;;;;;;6.28;1.55;;;;;;;;;;4996854;28;20029;-69
2024/02/07 13:27:21;;;;;;;8.20;1.10;;;;;;;;;;4991598;28;20076;-70
2024/02/07 13:29:47;;;;;;;7.40;1.63;;;;;;;;;;4995539;28;20058;-69
2024/02/07 13:32:13;;;;;;;4.15;1.05;;;;;;;;;;4993204;28;20023;-69
2024/02/07 13:34:38;;;;;;;7.20;1.00;;;;;;;;;;4994584;28;20109;-70
2024/02/07 13:37:04;;;;;;;4.97;1.25;;;;;;;;;;4997973;28;20038;-69
2024/02/07 13:39:29;;;;;;;3.58;0.88;;;;;;;;;;4997671;28;20033;-69
2024/02/07 13:41:54;;;;;;;2.60;0.63;;;;;;;;;;4993485;28;20394;-69
2024/02/07 13:44:19;;;;;;;0.63;0.30;;;;;;;;;;4991555;28;20087;-70
2024/02/07 13:46:44;;;;;;;6.70;0.80;;;;;;;;;;4992472;28;20034;-70
2024/02/07 13:49:10;;;;;;;16.40;3.10;;;;;;;;;;4994813;28;20356;-70
2024/02/07 13:51:35;;;;;;;4.63;0.85;;;;;;;;;;4994973;28;20280;-70
2024/02/07 13:54:00;;;;;;;6.63;0.90;;;;;;;;;;4994328;28;20399;-70
2024/02/07 13:56:26;;;;;;;1.70;0.70;;;;;;;;;;4991871;28;20042;-70
2024/02/07 13:58:51;;;;;;;2.42;1.10;;;;;;;;;;4995151;28;20265;-70
2024/02/07 14:01:16;;;;;;;4.73;1.20;;;;;;;;;;4998859;28;20100;-70
2024/02/07 14:03:41;;;;;;;1.90;0.40;;;;;;;;;;4998071;28;20745;-70
2024/02/07 14:06:07;;;;;;;4.37;1.10;;;;;;;;;;4994043;28;20347;-70
2024/02/07 14:08:32;;;;;;;7.43;1.33;;;;;;;;;;4997786;28;21035;-70
2024/02/07 14:10:57;;;;;;;8.10;1.20;;;;;;;;;;4992652;28;20018;-70
2024/02/07 14:13:22;;;;;;;3.57;0.73;;;;;;;;;;4995758;28;20022;-70
2024/02/07 14:15:47;;;;;;;1.27;0.55;;;;;;;;;;4993773;28;20355;-70
2024/02/07 14:18:12;;;;;;;5.03;1.40;;;;;;;;;;4996309;28;20026;-70
2024/02/07 14:20:38;;;;;;;2.50;1.20;;;;;;;;;;5001558;28;20812;-70
2024/02/07 14:23:03;;;;;;;4.53;1.53;;;;;;;;;;4993103;28;20353;-70
2024/02/07 14:25:28;;;;;;;5.15;1.08;;;;;;;;;;4995223;28;20668;-70
2024/02/07 14:27:53;;;;;;;5.25;1.30;;;;;;;;;;4989156;28;20033;-70
2024/02/07 14:30:23;;;;;;;7.23;1.60;;;;;;;;;;4998191;28;20022;-70
2024/02/07 14:32:50;;;;;;;1.85;0.93;;;;;;;;;;4993028;28;20344;-70
2024/02/07 14:35:16;;;;;;;4.63;1.45;;;;;;;;;;4994979;28;20022;-70
2024/02/07 14:37:41;;;;;;;4.10;1.35;;;;;;;;;;4995948;28;20528;-70
2024/02/07 14:40:07;;;;;;;9.77;1.30;;;;;;;;;;4993969;28;20112;-70
2024/02/07 14:42:33;;;;;;;4.63;0.77;;;;;;;;;;4992471;28;20264;-70
2024/02/07 14:44:58;;;;;;;6.35;1.48;;;;;;;;;;4991422;28;20054;-70
2024/02/07 14:47:23;;;;;;;6.70;1.38;;;;;;;;;;4994587;28;20072;-70
2024/02/07 14:49:48;;;;;;;9.73;1.30;;;;;;;;;;4991793;28;20025;-70
2024/02/07 14:52:14;;;;;;;2.63;1.15;;;;;;;;;;4989141;28;20030;-70
2024/02/07 14:54:39;;;;;;;6.63;1.50;;;;;;;;;;4992881;28;20169;-70
2024/02/07 14:57:04;;;;;;;2.67;1.00;;;;;;;;;;4996160;28;20081;-70
2024/02/07 14:59:29;;;;;;;7.05;1.27;;;;;;;;;;4997355;28;20594;-70
2024/02/07 15:01:55;;;;;;;10.90;1.23;;;;;;;;;;4992096;28;20050;-70
2024/02/07 15:04:22;;;;;;;3.47;1.10;;;;;;;;;;4995455;28;20030;-70
2024/02/07 15:06:50;;;;;;;1.80;0.88;;;;;;;;;;4991517;28;20517;-70
2024/02/07 15:09:16;;;;;;;2.83;1.38;;;;;;;;;;5001460;28;20401;-70
2024/02/07 15:11:41;;;;;;;3.17;1.48;;;;;;;;;;4999374;28;20109;-70
2024/02/07 15:14:06;;;;;;;3.83;1.30;;;;;;;;;;4999982;28;20021;-70
2024/02/07 15:16:31;;;;;;;4.80;1.33;;;;;;;;;;4998039;28;20033;-70
2024/02/07 15:18:57;;;;;;;7.25;1.52;;;;;;;;;;4998287;28;20022;-70
2024/02/07 15:21:22;;;;;;;8.90;1.30;;;;;;;;;;5001127;28;20187;-70
2024/02/07 15:23:47;;;;;;;9.23;1.27;;;;;;;;;;4997146;28;20030;-70
2024/02/07 15:26:12;;;;;;;9.50;2.28;;;;;;;;;;4996846;28;20348;-70
2024/02/07 15:28:38;;;;;;;8.15;1.63;;;;;;;;;;4998610;28;20034;-70
2024/02/07 15:31:03;;;;;;;5.53;1.75;;;;;;;;;;4994518;28;20025;-70
2024/02/07 15:33:34;;;;;;;5.50;1.95;;;;;;;;;;4998473;28;20056;-70
2024/02/07 15:35:59;;;;;;;3.42;1.48;;;;;;;;;;4998046;28;20040;-70